createdAt,value
2022-09-23T00:01:20.450Z,100.00
2022-09-23T00:03:49.259Z,100.00
2022-09-23T00:06:19.925Z,100.00
2022-09-23T00:08:49.553Z,100.00
2022-09-23T00:11:21.560Z,100.00
2022-09-23T00:13:51.720Z,100.00
2022-09-23T00:16:25.429Z,100.00
2022-09-23T00:18:52.847Z,100.00
2022-09-23T00:21:22.308Z,100.00
2022-09-23T00:23:49.644Z,100.00
2022-09-23T00:26:19.054Z,100.00
2022-09-23T00:28:47.725Z,100.00
2022-09-23T00:31:19.472Z,100.00
2022-09-23T00:33:46.769Z,100.00
2022-09-23T00:36:15.732Z,100.00
2022-09-23T00:38:44.643Z,100.00
2022-09-23T00:41:18.423Z,100.00
2022-09-23T00:43:53.565Z,100.00
2022-09-23T00:46:28.580Z,100.00
2022-09-23T00:49:02.947Z,100.00
2022-09-23T00:51:36.820Z,100.00
2022-09-23T00:54:06.376Z,100.00
2022-09-23T00:56:35.265Z,100.00
2022-09-23T00:59:03.654Z,100.00
2022-09-23T01:01:31.125Z,100.00
2022-09-23T01:03:59.148Z,100.00
2022-09-23T01:06:26.532Z,100.00
2022-09-23T01:08:53.872Z,100.00
2022-09-23T01:11:32.229Z,100.00
2022-09-23T01:14:21.788Z,100.00
2022-09-23T01:17:03.497Z,100.00
2022-09-23T01:19:36.723Z,100.00
2022-09-23T01:22:21.896Z,100.00
2022-09-23T01:24:59.400Z,100.00
2022-09-23T01:27:41.840Z,100.00
2022-09-23T01:30:35.270Z,100.00
2022-09-23T01:33:10.051Z,100.00
2022-09-23T01:36:16.120Z,100.00
2022-09-23T01:39:15.188Z,100.00
2022-09-23T01:41:45.576Z,100.00
2022-09-23T01:44:39.089Z,100.00
2022-09-23T01:47:15.572Z,100.00
2022-09-23T01:49:58.568Z,100.00
2022-09-23T01:52:35.899Z,100.00
2022-09-23T01:55:18.941Z,100.00
2022-09-23T01:57:58.463Z,100.00
2022-09-23T02:00:31.956Z,100.00
2022-09-23T02:03:16.468Z,100.00
2022-09-23T02:05:52.733Z,100.00
2022-09-23T02:08:27.725Z,100.00
2022-09-23T02:11:03.581Z,100.00
2022-09-23T02:13:45.948Z,100.00
2022-09-23T02:16:29.738Z,100.00
2022-09-23T02:19:04.498Z,100.00
2022-09-23T02:21:43.440Z,100.00
2022-09-23T02:24:32.479Z,100.00
2022-09-23T02:27:13.141Z,100.00
2022-09-23T02:29:57.101Z,100.00
2022-09-23T02:32:36.491Z,100.00
2022-09-23T02:35:23.358Z,100.00
2022-09-23T02:38:09.962Z,100.00
2022-09-23T02:41:04.655Z,100.00
2022-09-23T02:43:39.163Z,100.00
2022-09-23T02:46:07.898Z,100.00
2022-09-23T02:48:42.443Z,100.00
2022-09-23T02:51:10.125Z,100.00
2022-09-23T02:53:38.173Z,100.00
2022-09-23T02:56:19.604Z,100.00
2022-09-23T02:58:49.874Z,100.00
2022-09-23T03:01:32.436Z,100.00
2022-09-23T03:04:05.033Z,100.00
2022-09-23T03:06:51.497Z,100.00
2022-09-23T03:09:41.778Z,100.00
2022-09-23T03:12:18.762Z,100.00
2022-09-23T03:15:09.911Z,100.00
2022-09-23T03:18:02.711Z,100.00
2022-09-23T03:20:38.404Z,100.00
2022-09-23T03:23:08.765Z,100.00
2022-09-23T03:25:40.225Z,100.00
2022-09-23T03:28:09.344Z,100.00
2022-09-23T03:30:37.757Z,100.00
2022-09-23T03:33:07.757Z,100.00
2022-09-23T03:36:07.402Z,100.00
2022-09-23T03:38:41.499Z,100.00
2022-09-23T03:41:16.615Z,100.00
2022-09-23T03:43:45.788Z,100.00
2022-09-23T03:46:18.319Z,100.00
2022-09-23T03:48:45.695Z,100.00
2022-09-23T03:51:23.962Z,100.00
2022-09-23T03:53:51.618Z,100.00
2022-09-23T03:56:18.991Z,100.00
2022-09-23T03:58:46.584Z,100.00
2022-09-23T04:01:17.901Z,100.00
2022-09-23T04:03:46.881Z,100.00
2022-09-23T04:06:15.236Z,100.00
2022-09-23T04:08:42.483Z,100.00
2022-09-23T04:11:10.167Z,100.00
2022-09-23T04:13:37.725Z,100.00
2022-09-23T04:16:05.245Z,100.00
2022-09-23T04:18:32.685Z,100.00
2022-09-23T04:21:00.217Z,100.00
2022-09-23T04:23:27.908Z,100.00
2022-09-23T04:25:55.599Z,100.00
2022-09-23T04:28:23.799Z,100.00
2022-09-23T04:30:51.666Z,100.00
2022-09-23T04:33:19.186Z,100.00
2022-09-23T04:35:52.404Z,100.00
2022-09-23T04:38:19.778Z,100.00
2022-09-23T04:40:48.469Z,100.00
2022-09-23T04:43:16.960Z,100.00
2022-09-23T04:45:44.402Z,100.00
2022-09-23T04:48:13.899Z,100.00
2022-09-23T04:50:41.352Z,100.00
2022-09-23T04:53:08.714Z,100.00
2022-09-23T04:55:36.359Z,100.00
2022-09-23T04:58:04.303Z,100.00
2022-09-23T05:00:31.844Z,100.00
2022-09-23T05:02:59.179Z,100.00
2022-09-23T05:05:27.084Z,100.00
2022-09-23T05:07:57.874Z,100.00
2022-09-23T05:10:25.117Z,100.00
2022-09-23T05:12:56.883Z,100.00
2022-09-23T05:15:25.092Z,100.00
2022-09-23T05:17:52.361Z,100.00
2022-09-23T05:20:19.620Z,100.00
2022-09-23T05:22:46.816Z,100.00
2022-09-23T05:25:14.492Z,100.00
2022-09-23T05:27:42.347Z,100.00
2022-09-23T05:30:10.527Z,100.00
2022-09-23T05:32:38.381Z,100.00
2022-09-23T05:35:06.286Z,100.00
2022-09-23T05:37:33.604Z,100.00
2022-09-23T05:40:01.598Z,100.00
2022-09-23T05:42:29.108Z,100.00
2022-09-23T05:44:56.400Z,100.00
2022-09-23T05:47:23.802Z,100.00
2022-09-23T05:49:59.744Z,100.00
2022-09-23T05:52:28.296Z,100.00
2022-09-23T05:54:55.554Z,100.00
2022-09-23T05:57:22.815Z,100.00
2022-09-23T05:59:50.613Z,100.00
2022-09-23T06:02:17.933Z,100.00
2022-09-23T06:04:45.925Z,100.00
2022-09-23T06:07:13.862Z,100.00
2022-09-23T06:09:42.288Z,100.00
2022-09-23T06:12:09.580Z,100.00
2022-09-23T06:14:37.534Z,100.00
2022-09-23T06:17:05.607Z,100.00
2022-09-23T06:19:33.016Z,100.00
2022-09-23T06:22:00.369Z,100.00
2022-09-23T06:24:31.333Z,100.00
2022-09-23T06:27:01.001Z,100.00
2022-09-23T06:29:30.843Z,100.00
2022-09-23T06:31:59.630Z,100.00
2022-09-23T06:34:27.093Z,100.00
2022-09-23T06:36:55.767Z,100.00
2022-09-23T06:39:23.276Z,100.00
2022-09-23T06:41:50.645Z,100.00
2022-09-23T06:44:17.891Z,100.00
2022-09-23T06:46:45.217Z,100.00
2022-09-23T06:49:13.287Z,100.00
2022-09-23T06:51:41.884Z,100.00
2022-09-23T06:54:11.073Z,100.00
2022-09-23T06:56:39.739Z,100.00
2022-09-23T06:59:10.801Z,100.00
2022-09-23T07:01:38.203Z,100.00
2022-09-23T07:04:07.591Z,100.00
2022-09-23T07:06:35.699Z,100.00
2022-09-23T07:09:03.933Z,100.00
2022-09-23T07:11:31.908Z,100.00
2022-09-23T07:13:59.138Z,100.00
2022-09-23T07:16:27.253Z,100.00
2022-09-23T07:18:55.089Z,100.00
2022-09-23T07:21:22.664Z,100.00
2022-09-23T07:23:51.828Z,100.00
2022-09-23T07:26:19.964Z,100.00
2022-09-23T07:28:48.441Z,100.00
2022-09-23T07:31:30.018Z,100.00
2022-09-23T07:34:02.315Z,100.00
2022-09-23T07:36:32.616Z,100.00
2022-09-23T07:39:02.254Z,100.00
2022-09-23T07:41:31.651Z,100.00
2022-09-23T07:44:00.399Z,100.00
2022-09-23T07:46:30.968Z,100.00
2022-09-23T07:49:00.561Z,100.00
2022-09-23T07:51:35.691Z,100.00
2022-09-23T07:54:07.959Z,100.00
2022-09-23T07:56:36.353Z,100.00
2022-09-23T07:59:05.766Z,100.00
2022-09-23T08:01:36.063Z,100.00
2022-09-23T08:04:07.252Z,100.00
2022-09-23T08:06:35.838Z,100.00
2022-09-23T08:09:03.562Z,100.00
2022-09-23T08:11:31.311Z,100.00
2022-09-23T08:13:59.101Z,100.00
2022-09-23T08:16:27.118Z,100.00
2022-09-23T08:18:54.437Z,100.00
2022-09-23T08:21:22.837Z,100.00
2022-09-23T08:23:51.856Z,100.00
2022-09-23T08:26:22.317Z,100.00
2022-09-23T08:28:53.880Z,100.00
2022-09-23T08:31:22.558Z,100.00
2022-09-23T08:33:57.816Z,100.00
2022-09-23T08:36:27.311Z,100.00
2022-09-23T08:38:55.317Z,100.00
2022-09-23T08:41:59.076Z,100.00
2022-09-23T08:44:55.108Z,100.00
2022-09-23T08:47:43.663Z,97.95
2022-09-23T08:50:22.622Z,93.51
2022-09-23T08:53:03.040Z,90.41
2022-09-23T08:55:35.774Z,93.24
2022-09-23T08:58:41.744Z,88.41
2022-09-23T09:01:35.699Z,85.83
2022-09-23T09:04:14.684Z,85.23
2022-09-23T09:10:20.932Z,81.95
2022-09-23T09:12:51.159Z,79.22
2022-09-23T09:15:27.274Z,78.68
2022-09-23T09:18:15.434Z,77.69
2022-09-23T09:21:11.371Z,74.78
2022-09-23T09:23:58.229Z,73.14
2022-09-23T09:26:28.309Z,72.22
2022-09-23T09:29:11.383Z,74.20
2022-09-23T09:31:50.782Z,67.47
2022-09-23T09:34:38.144Z,67.86
2022-09-23T09:37:09.080Z,67.03
2022-09-23T09:39:37.229Z,65.50
2022-09-23T09:42:06.160Z,64.16
2022-09-23T09:44:48.751Z,63.83
2022-09-23T09:47:40.487Z,63.66
2022-09-23T09:50:13.914Z,63.53
2022-09-23T09:52:43.078Z,61.86
2022-09-23T09:55:13.739Z,66.43
2022-09-23T09:58:01.586Z,58.86
2022-09-23T10:00:30.104Z,57.97
2022-09-23T10:03:02.768Z,58.70
2022-09-23T10:05:52.285Z,59.08
2022-09-23T10:08:35.344Z,58.72
2022-09-23T10:11:02.601Z,58.87
2022-09-23T10:13:31.555Z,55.33
2022-09-23T10:16:02.941Z,56.63
2022-09-23T10:18:48.443Z,53.58
2022-09-23T10:21:26.875Z,54.80
2022-09-23T10:23:58.660Z,54.56
2022-09-23T10:26:32.239Z,50.42
2022-09-23T10:29:36.753Z,51.29
2022-09-23T10:32:30.191Z,50.57
2022-09-23T10:35:01.583Z,49.21
2022-09-23T10:37:55.054Z,49.77
2022-09-23T10:40:50.739Z,52.06
2022-09-23T10:43:58.647Z,50.23
2022-09-23T10:46:58.177Z,47.32
2022-09-23T10:49:44.473Z,47.76
2022-09-23T10:52:22.214Z,45.87
2022-09-23T10:55:10.945Z,45.72
2022-09-23T10:57:57.124Z,45.24
2022-09-23T11:00:40.944Z,45.52
2022-09-23T11:03:17.638Z,46.02
2022-09-23T11:05:56.849Z,45.84
2022-09-23T11:08:37.185Z,45.65
2022-09-23T11:11:43.244Z,44.77
2022-09-23T11:14:32.813Z,44.15
2022-09-23T11:17:29.115Z,43.79
2022-09-23T11:20:05.769Z,44.48
2022-09-23T11:22:43.987Z,43.31
2022-09-23T11:25:31.869Z,41.93
2022-09-23T11:28:46.105Z,41.41
2022-09-23T11:31:23.442Z,41.37
2022-09-23T11:34:12.964Z,41.48
2022-09-23T11:36:47.103Z,42.12
2022-09-23T11:39:24.389Z,40.33
2022-09-23T11:41:56.417Z,40.63
2022-09-23T11:44:31.950Z,40.97
2022-09-23T11:47:10.855Z,39.41
2022-09-23T11:49:39.265Z,40.90
2022-09-23T11:52:20.417Z,39.54
2022-09-23T11:54:57.246Z,39.44
2022-09-23T11:57:38.011Z,41.59
2022-09-23T12:00:19.216Z,40.84
2022-09-23T12:03:29.141Z,40.33
2022-09-23T12:06:09.153Z,40.31
2022-09-23T12:08:37.496Z,40.69
2022-09-23T12:11:16.989Z,39.04
2022-09-23T12:14:15.309Z,41.82
2022-09-23T12:17:07.142Z,37.77
2022-09-23T12:20:09.494Z,38.58
2022-09-23T12:23:06.109Z,38.99
2022-09-23T12:26:06.728Z,39.62
2022-09-23T12:28:45.008Z,37.38
2022-09-23T12:31:22.193Z,37.39
2022-09-23T12:33:54.337Z,36.66
2022-09-23T12:36:40.204Z,37.24
2022-09-23T12:39:19.676Z,36.34
2022-09-23T12:41:50.675Z,35.34
2022-09-23T12:44:29.433Z,36.34
2022-09-23T12:47:15.067Z,37.87
2022-09-23T12:49:44.305Z,37.05
2022-09-23T12:52:16.465Z,36.26
2022-09-23T12:54:48.754Z,36.65
2022-09-23T12:57:34.149Z,34.61
2022-09-23T13:00:22.517Z,34.95
2022-09-23T13:03:09.641Z,35.59
2022-09-23T13:06:07.802Z,34.42
2022-09-23T13:08:40.423Z,35.97
2022-09-23T13:11:28.612Z,33.88
2022-09-23T13:14:00.597Z,33.52
2022-09-23T13:16:34.677Z,34.77
2022-09-23T13:19:05.902Z,35.33
2022-09-23T13:21:42.252Z,33.02
2022-09-23T13:24:28.910Z,34.67
2022-09-23T13:27:05.656Z,33.86
2022-09-23T13:29:49.767Z,33.76
2022-09-23T13:32:21.688Z,34.34
2022-09-23T13:35:02.148Z,35.46
2022-09-23T13:37:39.012Z,35.88
2022-09-23T13:40:18.914Z,35.93
2022-09-23T13:42:55.299Z,37.04
2022-09-23T13:45:24.407Z,35.91
2022-09-23T13:47:54.691Z,35.28
2022-09-23T13:50:24.200Z,32.91
2022-09-23T13:52:58.688Z,33.68
2022-09-23T13:55:28.413Z,30.94
2022-09-23T13:58:05.018Z,29.11
2022-09-23T14:00:35.506Z,27.46
2022-09-23T14:03:17.095Z,28.08
2022-09-23T14:05:46.384Z,26.15
2022-09-23T14:08:14.229Z,26.25
2022-09-23T14:10:46.277Z,24.92
2022-09-23T14:13:25.674Z,23.86
2022-09-23T14:16:01.372Z,20.98
2022-09-23T14:18:36.491Z,20.37
2022-09-23T14:21:04.911Z,21.30
2022-09-23T14:23:33.436Z,21.65
2022-09-23T14:26:03.065Z,22.47
2022-09-23T14:28:32.108Z,20.56
2022-09-23T14:31:00.722Z,20.82
2022-09-23T14:33:32.732Z,21.20
2022-09-23T14:36:08.912Z,21.07
2022-09-23T14:38:51.734Z,19.03
2022-09-23T14:41:25.025Z,21.28
2022-09-23T14:43:58.971Z,23.43
2022-09-23T14:46:29.651Z,22.55
2022-09-23T14:49:02.734Z,23.90
2022-09-23T14:51:45.640Z,23.53
2022-09-23T14:54:52.460Z,22.27
2022-09-23T14:57:23.316Z,21.37
2022-09-23T14:59:54.800Z,21.76
2022-09-23T15:02:28.939Z,21.70
2022-09-23T15:05:20.097Z,20.05
2022-09-23T15:07:53.496Z,19.80
2022-09-23T15:10:27.176Z,19.53
2022-09-23T15:13:03.241Z,19.33
2022-09-23T15:15:30.685Z,18.86
2022-09-23T15:18:24.817Z,19.36
2022-09-23T15:20:56.131Z,23.16
2022-09-23T15:23:42.574Z,23.22
2022-09-23T15:26:16.909Z,22.71
2022-09-23T15:28:44.878Z,21.99
2022-09-23T15:31:13.236Z,21.50
2022-09-23T15:33:40.999Z,24.60
2022-09-23T15:36:17.837Z,22.17
2022-09-23T15:38:46.288Z,25.46
2022-09-23T15:41:14.395Z,22.29
2022-09-23T15:43:42.292Z,24.34
2022-09-23T15:46:22.538Z,23.21
2022-09-23T15:48:58.882Z,26.24
2022-09-23T15:51:28.179Z,23.00
2022-09-23T15:53:56.279Z,25.27
2022-09-23T15:56:26.946Z,22.01
2022-09-23T15:58:54.268Z,25.72
2022-09-23T16:01:30.602Z,24.33
2022-09-23T16:04:01.095Z,23.98
2022-09-23T16:06:28.339Z,27.44
2022-09-23T16:08:55.869Z,28.40
2022-09-23T16:11:27.416Z,27.85
2022-09-23T16:13:55.851Z,30.17
2022-09-23T16:16:24.561Z,33.20
2022-09-23T16:18:52.326Z,34.09
2022-09-23T16:21:23.630Z,35.32
2022-09-23T16:23:51.510Z,37.02
2022-09-23T16:26:20.741Z,36.32
2022-09-23T16:28:50.247Z,36.10
2022-09-23T16:31:19.322Z,36.47
2022-09-23T16:33:48.606Z,37.97
2022-09-23T16:36:28.573Z,38.80
2022-09-23T16:38:55.854Z,40.34
2022-09-23T16:41:24.701Z,41.40
2022-09-23T16:43:53.557Z,41.46
2022-09-23T16:46:22.523Z,43.10
2022-09-23T16:48:52.945Z,42.07
2022-09-23T16:51:23.758Z,42.06
2022-09-23T16:53:52.131Z,41.87
2022-09-23T16:56:27.268Z,42.67
2022-09-23T16:58:57.027Z,43.05
2022-09-23T17:01:46.032Z,42.65
2022-09-23T17:04:15.263Z,43.63
2022-09-23T17:06:44.590Z,43.99
2022-09-23T17:09:13.314Z,44.75
2022-09-23T17:11:41.351Z,46.67
2022-09-23T17:14:10.304Z,47.33
2022-09-23T17:16:37.592Z,47.17
2022-09-23T17:19:10.949Z,47.63
2022-09-23T17:21:38.609Z,49.62
2022-09-23T17:24:06.844Z,50.11
2022-09-23T17:26:34.915Z,49.40
2022-09-23T17:29:02.401Z,50.03
2022-09-23T17:31:30.616Z,53.06
2022-09-23T17:33:58.400Z,52.25
2022-09-23T17:36:27.986Z,51.07
2022-09-23T17:38:56.608Z,50.47
2022-09-23T17:41:24.203Z,50.84
2022-09-23T17:43:57.085Z,53.16
2022-09-23T17:46:24.774Z,53.04
2022-09-23T17:48:55.459Z,50.93
2022-09-23T17:51:24.154Z,53.56
2022-09-23T17:53:51.473Z,53.71
2022-09-23T17:56:29.973Z,56.19
2022-09-23T17:59:00.642Z,56.07
2022-09-23T18:01:29.416Z,54.20
2022-09-23T18:03:59.202Z,54.59
2022-09-23T18:06:31.736Z,57.85
2022-09-23T18:09:04.406Z,59.58
2022-09-23T18:11:41.246Z,58.71
2022-09-23T18:14:15.311Z,60.72
2022-09-23T18:16:44.438Z,54.95
2022-09-23T18:19:14.904Z,55.75
2022-09-23T18:21:45.259Z,57.40
2022-09-23T18:27:00.908Z,58.40
2022-09-23T18:29:28.756Z,60.18
2022-09-23T18:31:56.711Z,59.42
2022-09-23T18:34:25.296Z,61.20
2022-09-23T18:36:55.895Z,56.05
2022-09-23T18:39:23.137Z,57.05
2022-09-23T18:41:51.003Z,59.40
2022-09-23T18:44:19.828Z,57.40
2022-09-23T18:46:47.064Z,55.82
2022-09-23T18:49:32.848Z,54.00
2022-09-23T18:52:00.200Z,54.31
2022-09-23T18:54:28.959Z,53.86
2022-09-23T18:56:56.536Z,54.52
2022-09-23T18:59:28.001Z,54.26
2022-09-23T19:01:55.834Z,54.93
2022-09-23T19:04:25.122Z,56.01
2022-09-23T19:06:53.946Z,57.28
2022-09-23T19:09:21.576Z,56.60
2022-09-23T19:11:53.311Z,56.59
2022-09-23T19:14:21.285Z,55.52
2022-09-23T19:16:49.405Z,57.88
2022-09-23T19:19:17.202Z,56.55
2022-09-23T19:21:44.655Z,55.04
2022-09-23T19:24:15.595Z,55.74
2022-09-23T19:26:44.241Z,52.78
2022-09-23T19:29:16.733Z,55.24
2022-09-23T19:31:44.494Z,53.70
2022-09-23T19:34:17.755Z,54.68
2022-09-23T19:36:47.178Z,55.95
2022-09-23T19:39:18.293Z,55.42
2022-09-23T19:41:46.589Z,57.29
2022-09-23T19:44:15.201Z,58.35
2022-09-23T19:46:45.566Z,58.17
2022-09-23T19:49:13.681Z,57.70
2022-09-23T19:51:41.192Z,57.77
2022-09-23T19:54:09.177Z,57.41
2022-09-23T19:56:36.877Z,59.10
2022-09-23T19:59:09.172Z,60.71
2022-09-23T20:01:37.241Z,60.96
2022-09-23T20:04:05.552Z,60.15
2022-09-23T20:06:34.733Z,60.75
2022-09-23T20:09:02.668Z,60.04
2022-09-23T20:11:30.416Z,59.80
2022-09-23T20:14:04.249Z,60.86
2022-09-23T20:16:34.405Z,61.30
2022-09-23T20:19:03.925Z,62.44
2022-09-23T20:21:33.643Z,62.48
2022-09-23T20:24:01.895Z,62.72
2022-09-23T20:26:48.987Z,63.03
2022-09-23T20:29:16.862Z,64.28
2022-09-23T20:31:44.545Z,64.18
2022-09-23T20:34:12.190Z,63.57
2022-09-23T20:36:41.179Z,62.79
2022-09-23T20:39:10.271Z,61.93
2022-09-23T20:41:39.182Z,61.92
2022-09-23T20:44:11.598Z,62.88
2022-09-23T20:46:39.092Z,62.37
2022-09-23T20:49:08.940Z,62.89
2022-09-23T20:51:37.109Z,63.16
2022-09-23T20:54:04.439Z,65.23
2022-09-23T20:56:31.819Z,62.78
2022-09-23T20:59:00.877Z,63.87
2022-09-23T21:01:28.503Z,63.13
2022-09-23T21:03:56.224Z,65.33
2022-09-23T21:06:25.135Z,70.32
2022-09-23T21:08:54.532Z,73.70
2022-09-23T21:11:23.430Z,74.97
2022-09-23T21:13:52.415Z,74.91
2022-09-23T21:16:24.610Z,76.10
2022-09-23T21:18:52.287Z,76.44
2022-09-23T21:21:22.113Z,76.70
2022-09-23T21:23:51.223Z,77.61
2022-09-23T21:26:21.173Z,82.17
2022-09-23T21:28:59.265Z,81.88
2022-09-23T21:31:28.079Z,82.57
2022-09-23T21:33:59.051Z,85.16
2022-09-23T21:36:37.533Z,85.11
2022-09-23T21:39:06.786Z,82.27
2022-09-23T21:41:34.230Z,80.74
2022-09-23T21:44:04.627Z,77.76
2022-09-23T21:46:35.235Z,71.65
2022-09-23T21:49:03.853Z,71.39
